sensor_id;sensor_type;location;lat;lon;timestamp;P1;durP1;ratioP1;P2;durP2;ratioP2
9914;SDS011;4996;48.746;9.174;2023-03-08T00:00:12;10.57;;;5.45;;
9914;SDS011;4996;48.746;9.174;2023-03-08T00:02:39;9.55;;;5.25;;
9914;SDS011;4996;48.746;9.174;2023-03-08T00:05:05;9.70;;;4.80;;
9914;SDS011;4996;48.746;9.174;2023-03-08T00:07:31;9.10;;;5.88;;
9914;SDS011;4996;48.746;9.174;2023-03-08T00:09:57;9.23;;;5.20;;
9914;SDS011;4996;48.746;9.174;2023-03-08T00:12:23;8.87;;;4.83;;
9914;SDS011;4996;48.746;9.174;2023-03-08T00:14:49;11.30;;;5.87;;
9914;SDS011;4996;48.746;9.174;2023-03-08T00:17:15;12.13;;;6.80;;
9914;SDS011;4996;48.746;9.174;2023-03-08T00:19:41;10.70;;;5.80;;
9914;SDS011;4996;48.746;9.174;2023-03-08T00:22:07;11.80;;;6.67;;
9914;SDS011;4996;48.746;9.174;2023-03-08T00:24:33;11.40;;;5.63;;
9914;SDS011;4996;48.746;9.174;2023-03-08T00:26:59;8.70;;;5.90;;
9914;SDS011;4996;48.746;9.174;2023-03-08T00:29:24;8.50;;;4.97;;
9914;SDS011;4996;48.746;9.174;2023-03-08T00:31:50;12.87;;;5.90;;
9914;SDS011;4996;48.746;9.174;2023-03-08T00:34:16;12.67;;;4.63;;
9914;SDS011;4996;48.746;9.174;2023-03-08T00:36:41;21.13;;;7.30;;
9914;SDS011;4996;48.746;9.174;2023-03-08T00:39:07;11.40;;;6.60;;
9914;SDS011;4996;48.746;9.174;2023-03-08T00:41:33;11.10;;;6.33;;
9914;SDS011;4996;48.746;9.174;2023-03-08T00:43:59;10.90;;;5.80;;
9914;SDS011;4996;48.746;9.174;2023-03-08T00:46:25;10.90;;;6.37;;
9914;SDS011;4996;48.746;9.174;2023-03-08T00:48:50;11.20;;;6.40;;
9914;SDS011;4996;48.746;9.174;2023-03-08T00:51:17;10.63;;;5.57;;
9914;SDS011;4996;48.746;9.174;2023-03-08T00:53:44;12.87;;;5.33;;
9914;SDS011;4996;48.746;9.174;2023-03-08T00:56:10;11.70;;;5.75;;
9914;SDS011;4996;48.746;9.174;2023-03-08T00:58:37;14.07;;;6.83;;
9914;SDS011;4996;48.746;9.174;2023-03-08T01:01:03;12.13;;;6.05;;
9914;SDS011;4996;48.746;9.174;2023-03-08T01:03:30;10.57;;;5.73;;
9914;SDS011;4996;48.746;9.174;2023-03-08T01:05:56;11.70;;;5.80;;
9914;SDS011;4996;48.746;9.174;2023-03-08T01:08:23;10.90;;;6.30;;
9914;SDS011;4996;48.746;9.174;2023-03-08T01:10:50;9.23;;;5.60;;
9914;SDS011;4996;48.746;9.174;2023-03-08T01:13:20;13.60;;;6.37;;
9914;SDS011;4996;48.746;9.174;2023-03-08T01:15:46;10.40;;;4.10;;
9914;SDS011;4996;48.746;9.174;2023-03-08T01:18:12;18.63;;;6.70;;
9914;SDS011;4996;48.746;9.174;2023-03-08T01:20:38;10.60;;;5.40;;
9914;SDS011;4996;48.746;9.174;2023-03-08T01:23:03;13.03;;;5.90;;
9914;SDS011;4996;48.746;9.174;2023-03-08T01:25:29;12.50;;;7.90;;
9914;SDS011;4996;48.746;9.174;2023-03-08T01:27:55;10.13;;;6.20;;
9914;SDS011;4996;48.746;9.174;2023-03-08T01:30:20;18.63;;;6.77;;
9914;SDS011;4996;48.746;9.174;2023-03-08T01:32:46;17.80;;;7.70;;
9914;SDS011;4996;48.746;9.174;2023-03-08T01:35:11;9.90;;;5.00;;
9914;SDS011;4996;48.746;9.174;2023-03-08T01:37:37;12.47;;;6.20;;
9914;SDS011;4996;48.746;9.174;2023-03-08T01:45:58;9.43;;;5.77;;
9914;SDS011;4996;48.746;9.174;2023-03-08T01:48:10;10.45;;;5.07;;
9914;SDS011;4996;48.746;9.174;2023-03-08T01:50:36;17.30;;;7.32;;
9914;SDS011;4996;48.746;9.174;2023-03-08T01:53:03;10.40;;;6.43;;
9914;SDS011;4996;48.746;9.174;2023-03-08T01:55:28;11.07;;;6.27;;
9914;SDS011;4996;48.746;9.174;2023-03-08T01:57:54;13.70;;;6.43;;
9914;SDS011;4996;48.746;9.174;2023-03-08T02:00:21;10.03;;;5.80;;
9914;SDS011;4996;48.746;9.174;2023-03-08T02:02:49;6.70;;;4.40;;
9914;SDS011;4996;48.746;9.174;2023-03-08T02:05:18;9.98;;;6.53;;
9914;SDS011;4996;48.746;9.174;2023-03-08T02:07:44;12.50;;;5.68;;
9914;SDS011;4996;48.746;9.174;2023-03-08T02:10:10;11.60;;;6.57;;
9914;SDS011;4996;48.746;9.174;2023-03-08T02:12:36;10.75;;;6.07;;
9914;SDS011;4996;48.746;9.174;2023-03-08T02:15:04;10.63;;;5.80;;
9914;SDS011;4996;48.746;9.174;2023-03-08T02:17:36;9.52;;;5.85;;
9914;SDS011;4996;48.746;9.174;2023-03-08T02:22:37;12.20;;;7.28;;
9914;SDS011;4996;48.746;9.174;2023-03-08T02:25:08;12.98;;;6.65;;
9914;SDS011;4996;48.746;9.174;2023-03-08T02:27:41;9.65;;;6.13;;
9914;SDS011;4996;48.746;9.174;2023-03-08T02:30:08;13.40;;;7.05;;
9914;SDS011;4996;48.746;9.174;2023-03-08T02:32:35;19.83;;;6.10;;
9914;SDS011;4996;48.746;9.174;2023-03-08T02:35:01;9.73;;;6.33;;
9914;SDS011;4996;48.746;9.174;2023-03-08T02:37:26;11.83;;;6.00;;
9914;SDS011;4996;48.746;9.174;2023-03-08T02:39:52;8.80;;;5.27;;
9914;SDS011;4996;48.746;9.174;2023-03-08T02:42:18;13.83;;;6.47;;
9914;SDS011;4996;48.746;9.174;2023-03-08T02:44:43;5.00;;;3.53;;
9914;SDS011;4996;48.746;9.174;2023-03-08T02:47:09;13.20;;;6.17;;
9914;SDS011;4996;48.746;9.174;2023-03-08T02:49:34;12.57;;;6.60;;
9914;SDS011;4996;48.746;9.174;2023-03-08T02:52:00;8.10;;;5.27;;
9914;SDS011;4996;48.746;9.174;2023-03-08T02:54:26;12.70;;;6.00;;
9914;SDS011;4996;48.746;9.174;2023-03-08T02:56:51;13.53;;;5.33;;
9914;SDS011;4996;48.746;9.174;2023-03-08T02:59:17;12.50;;;6.87;;
9914;SDS011;4996;48.746;9.174;2023-03-08T03:01:42;10.60;;;6.00;;
9914;SDS011;4996;48.746;9.174;2023-03-08T03:04:08;8.67;;;5.47;;
9914;SDS011;4996;48.746;9.174;2023-03-08T03:06:33;11.20;;;6.23;;
9914;SDS011;4996;48.746;9.174;2023-03-08T03:08:59;9.13;;;5.33;;
9914;SDS011;4996;48.746;9.174;2023-03-08T03:11:25;18.43;;;7.80;;
9914;SDS011;4996;48.746;9.174;2023-03-08T03:13:54;10.93;;;6.20;;
9914;SDS011;4996;48.746;9.174;2023-03-08T03:16:22;11.73;;;6.30;;
9914;SDS011;4996;48.746;9.174;2023-03-08T03:18:48;13.27;;;6.13;;
9914;SDS011;4996;48.746;9.174;2023-03-08T03:21:14;10.00;;;5.57;;
9914;SDS011;4996;48.746;9.174;2023-03-08T03:23:41;11.27;;;5.90;;
9914;SDS011;4996;48.746;9.174;2023-03-08T03:26:07;11.60;;;6.47;;
9914;SDS011;4996;48.746;9.174;2023-03-08T03:28:38;10.73;;;6.68;;
9914;SDS011;4996;48.746;9.174;2023-03-08T03:31:12;9.05;;;5.97;;
9914;SDS011;4996;48.746;9.174;2023-03-08T03:33:40;12.45;;;6.00;;
9914;SDS011;4996;48.746;9.174;2023-03-08T03:36:06;13.30;;;7.37;;
9914;SDS011;4996;48.746;9.174;2023-03-08T03:38:33;11.10;;;6.10;;
9914;SDS011;4996;48.746;9.174;2023-03-08T03:41:00;11.32;;;5.35;;
9914;SDS011;4996;48.746;9.174;2023-03-08T03:43:28;14.63;;;6.40;;
9914;SDS011;4996;48.746;9.174;2023-03-08T03:45:55;9.00;;;5.57;;
9914;SDS011;4996;48.746;9.174;2023-03-08T03:48:24;9.10;;;5.50;;
9914;SDS011;4996;48.746;9.174;2023-03-08T03:50:54;8.07;;;5.27;;
9914;SDS011;4996;48.746;9.174;2023-03-08T03:53:22;15.10;;;5.80;;
9914;SDS011;4996;48.746;9.174;2023-03-08T03:55:47;12.73;;;5.25;;
9914;SDS011;4996;48.746;9.174;2023-03-08T03:58:13;10.70;;;5.80;;
9914;SDS011;4996;48.746;9.174;2023-03-08T04:00:38;15.00;;;5.37;;
9914;SDS011;4996;48.746;9.174;2023-03-08T04:03:04;10.37;;;4.90;;
9914;SDS011;4996;48.746;9.174;2023-03-08T04:05:30;7.67;;;4.90;;
9914;SDS011;4996;48.746;9.174;2023-03-08T04:07:55;12.30;;;5.70;;
9914;SDS011;4996;48.746;9.174;2023-03-08T04:10:21;11.57;;;5.53;;
9914;SDS011;4996;48.746;9.174;2023-03-08T04:12:47;11.10;;;5.00;;
9914;SDS011;4996;48.746;9.174;2023-03-08T04:15:13;12.52;;;5.47;;
9914;SDS011;4996;48.746;9.174;2023-03-08T04:17:39;8.17;;;5.37;;
9914;SDS011;4996;48.746;9.174;2023-03-08T04:20:05;15.10;;;6.87;;
9914;SDS011;4996;48.746;9.174;2023-03-08T04:22:31;8.70;;;4.72;;
9914;SDS011;4996;48.746;9.174;2023-03-08T04:24:56;17.40;;;7.17;;
9914;SDS011;4996;48.746;9.174;2023-03-08T04:27:22;12.93;;;6.27;;
9914;SDS011;4996;48.746;9.174;2023-03-08T04:29:47;12.47;;;6.00;;
9914;SDS011;4996;48.746;9.174;2023-03-08T04:32:13;14.07;;;7.00;;
9914;SDS011;4996;48.746;9.174;2023-03-08T04:34:38;11.43;;;6.27;;
9914;SDS011;4996;48.746;9.174;2023-03-08T04:37:04;10.53;;;5.50;;
9914;SDS011;4996;48.746;9.174;2023-03-08T04:39:30;15.60;;;7.20;;
9914;SDS011;4996;48.746;9.174;2023-03-08T04:41:55;8.47;;;5.33;;
9914;SDS011;4996;48.746;9.174;2023-03-08T04:44:21;10.43;;;5.47;;
9914;SDS011;4996;48.746;9.174;2023-03-08T04:46:46;11.93;;;6.07;;
9914;SDS011;4996;48.746;9.174;2023-03-08T04:49:12;11.37;;;6.67;;
9914;SDS011;4996;48.746;9.174;2023-03-08T04:51:38;14.93;;;7.43;;
9914;SDS011;4996;48.746;9.174;2023-03-08T04:54:03;11.15;;;5.72;;
9914;SDS011;4996;48.746;9.174;2023-03-08T04:56:29;8.93;;;5.50;;
9914;SDS011;4996;48.746;9.174;2023-03-08T04:58:54;10.27;;;5.30;;
9914;SDS011;4996;48.746;9.174;2023-03-08T05:01:20;12.53;;;6.73;;
9914;SDS011;4996;48.746;9.174;2023-03-08T05:03:47;10.70;;;7.13;;
9914;SDS011;4996;48.746;9.174;2023-03-08T05:06:16;11.18;;;5.90;;
9914;SDS011;4996;48.746;9.174;2023-03-08T05:08:43;10.95;;;5.85;;
9914;SDS011;4996;48.746;9.174;2023-03-08T05:11:09;13.27;;;6.30;;
9914;SDS011;4996;48.746;9.174;2023-03-08T05:13:37;12.90;;;6.45;;
9914;SDS011;4996;48.746;9.174;2023-03-08T05:16:03;11.73;;;7.80;;
9914;SDS011;4996;48.746;9.174;2023-03-08T05:18:30;15.07;;;7.30;;
9914;SDS011;4996;48.746;9.174;2023-03-08T05:20:57;14.57;;;7.17;;
9914;SDS011;4996;48.746;9.174;2023-03-08T05:23:33;15.13;;;6.60;;
9914;SDS011;4996;48.746;9.174;2023-03-08T05:25:59;11.07;;;6.63;;
9914;SDS011;4996;48.746;9.174;2023-03-08T05:28:27;14.13;;;7.55;;
9914;SDS011;4996;48.746;9.174;2023-03-08T05:31:08;15.30;;;7.65;;
9914;SDS011;4996;48.746;9.174;2023-03-08T05:33:39;11.77;;;7.40;;
9914;SDS011;4996;48.746;9.174;2023-03-08T05:36:06;10.73;;;6.30;;
9914;SDS011;4996;48.746;9.174;2023-03-08T05:38:32;13.50;;;7.18;;
9914;SDS011;4996;48.746;9.174;2023-03-08T05:40:58;16.65;;;8.73;;
9914;SDS011;4996;48.746;9.174;2023-03-08T05:43:25;15.18;;;7.65;;
9914;SDS011;4996;48.746;9.174;2023-03-08T05:45:58;13.93;;;6.57;;
9914;SDS011;4996;48.746;9.174;2023-03-08T05:48:26;11.38;;;6.20;;
9914;SDS011;4996;48.746;9.174;2023-03-08T05:50:51;11.03;;;6.57;;
9914;SDS011;4996;48.746;9.174;2023-03-08T05:53:17;16.63;;;5.80;;
9914;SDS011;4996;48.746;9.174;2023-03-08T05:55:43;12.27;;;5.17;;
9914;SDS011;4996;48.746;9.174;2023-03-08T05:58:08;12.47;;;6.70;;
9914;SDS011;4996;48.746;9.174;2023-03-08T06:00:34;13.70;;;7.60;;
9914;SDS011;4996;48.746;9.174;2023-03-08T06:02:59;13.43;;;8.10;;
9914;SDS011;4996;48.746;9.174;2023-03-08T06:05:29;12.57;;;7.38;;
9914;SDS011;4996;48.746;9.174;2023-03-08T06:07:55;19.42;;;8.23;;
9914;SDS011;4996;48.746;9.174;2023-03-08T06:10:20;13.57;;;7.40;;
9914;SDS011;4996;48.746;9.174;2023-03-08T06:12:46;15.73;;;7.93;;
9914;SDS011;4996;48.746;9.174;2023-03-08T06:15:12;15.43;;;8.90;;
9914;SDS011;4996;48.746;9.174;2023-03-08T06:17:38;12.63;;;8.60;;
9914;SDS011;4996;48.746;9.174;2023-03-08T06:20:05;15.20;;;7.53;;
9914;SDS011;4996;48.746;9.174;2023-03-08T06:22:31;15.63;;;8.25;;
9914;SDS011;4996;48.746;9.174;2023-03-08T06:24:57;11.63;;;7.40;;
9914;SDS011;4996;48.746;9.174;2023-03-08T06:27:22;13.13;;;6.97;;
9914;SDS011;4996;48.746;9.174;2023-03-08T06:29:48;23.60;;;9.65;;
9914;SDS011;4996;48.746;9.174;2023-03-08T06:32:14;16.10;;;8.65;;
9914;SDS011;4996;48.746;9.174;2023-03-08T06:34:40;20.17;;;9.20;;
9914;SDS011;4996;48.746;9.174;2023-03-08T06:37:06;12.40;;;8.30;;
9914;SDS011;4996;48.746;9.174;2023-03-08T06:39:32;13.27;;;7.97;;
9914;SDS011;4996;48.746;9.174;2023-03-08T06:41:58;17.95;;;8.15;;
9914;SDS011;4996;48.746;9.174;2023-03-08T06:44:26;13.57;;;7.45;;
9914;SDS011;4996;48.746;9.174;2023-03-08T06:46:52;28.75;;;8.93;;
9914;SDS011;4996;48.746;9.174;2023-03-08T06:49:18;14.87;;;7.27;;
9914;SDS011;4996;48.746;9.174;2023-03-08T06:51:43;18.90;;;8.43;;
9914;SDS011;4996;48.746;9.174;2023-03-08T06:54:09;14.07;;;8.53;;
9914;SDS011;4996;48.746;9.174;2023-03-08T06:56:34;13.47;;;7.30;;
9914;SDS011;4996;48.746;9.174;2023-03-08T06:59:00;15.33;;;8.60;;
9914;SDS011;4996;48.746;9.174;2023-03-08T07:01:25;10.90;;;6.97;;
9914;SDS011;4996;48.746;9.174;2023-03-08T07:03:51;14.40;;;8.50;;
9914;SDS011;4996;48.746;9.174;2023-03-08T07:06:17;9.23;;;7.20;;
9914;SDS011;4996;48.746;9.174;2023-03-08T07:08:42;13.63;;;8.40;;
9914;SDS011;4996;48.746;9.174;2023-03-08T07:11:08;20.33;;;9.30;;
9914;SDS011;4996;48.746;9.174;2023-03-08T07:13:34;15.83;;;8.67;;
9914;SDS011;4996;48.746;9.174;2023-03-08T07:16:04;11.98;;;7.47;;
9914;SDS011;4996;48.746;9.174;2023-03-08T07:18:34;20.53;;;7.80;;
9914;SDS011;4996;48.746;9.174;2023-03-08T07:20:59;10.73;;;7.03;;
9914;SDS011;4996;48.746;9.174;2023-03-08T07:23:25;12.20;;;7.93;;
9914;SDS011;4996;48.746;9.174;2023-03-08T07:25:51;14.70;;;7.37;;
9914;SDS011;4996;48.746;9.174;2023-03-08T07:28:16;17.90;;;8.17;;
9914;SDS011;4996;48.746;9.174;2023-03-08T07:30:51;25.07;;;8.67;;
9914;SDS011;4996;48.746;9.174;2023-03-08T07:33:18;15.63;;;8.57;;
9914;SDS011;4996;48.746;9.174;2023-03-08T07:35:44;15.43;;;8.43;;
9914;SDS011;4996;48.746;9.174;2023-03-08T07:38:13;16.40;;;8.30;;
9914;SDS011;4996;48.746;9.174;2023-03-08T07:40:39;13.50;;;7.23;;
9914;SDS011;4996;48.746;9.174;2023-03-08T07:43:05;15.10;;;8.70;;
9914;SDS011;4996;48.746;9.174;2023-03-08T07:45:30;16.10;;;8.47;;
9914;SDS011;4996;48.746;9.174;2023-03-08T07:47:56;14.90;;;8.43;;
9914;SDS011;4996;48.746;9.174;2023-03-08T07:50:22;13.37;;;8.07;;
9914;SDS011;4996;48.746;9.174;2023-03-08T07:52:48;13.90;;;7.73;;
9914;SDS011;4996;48.746;9.174;2023-03-08T07:55:13;14.37;;;7.80;;
9914;SDS011;4996;48.746;9.174;2023-03-08T07:57:39;13.97;;;8.10;;
9914;SDS011;4996;48.746;9.174;2023-03-08T08:00:05;11.43;;;7.00;;
9914;SDS011;4996;48.746;9.174;2023-03-08T08:02:31;10.60;;;6.50;;
9914;SDS011;4996;48.746;9.174;2023-03-08T08:04:58;12.23;;;7.93;;
9914;SDS011;4996;48.746;9.174;2023-03-08T08:07:24;14.83;;;8.10;;
9914;SDS011;4996;48.746;9.174;2023-03-08T08:09:49;13.03;;;8.77;;
9914;SDS011;4996;48.746;9.174;2023-03-08T08:12:15;15.53;;;7.70;;
9914;SDS011;4996;48.746;9.174;2023-03-08T08:14:41;15.40;;;8.57;;
9914;SDS011;4996;48.746;9.174;2023-03-08T08:17:07;11.00;;;6.23;;
9914;SDS011;4996;48.746;9.174;2023-03-08T08:19:32;14.23;;;7.70;;
9914;SDS011;4996;48.746;9.174;2023-03-08T08:21:58;15.93;;;8.13;;
9914;SDS011;4996;48.746;9.174;2023-03-08T08:24:24;14.03;;;7.27;;
9914;SDS011;4996;48.746;9.174;2023-03-08T08:26:50;13.67;;;7.30;;
9914;SDS011;4996;48.746;9.174;2023-03-08T08:29:15;14.07;;;7.40;;
9914;SDS011;4996;48.746;9.174;2023-03-08T08:31:41;15.03;;;6.70;;
9914;SDS011;4996;48.746;9.174;2023-03-08T08:34:07;11.93;;;7.93;;
9914;SDS011;4996;48.746;9.174;2023-03-08T08:36:32;20.17;;;7.50;;
9914;SDS011;4996;48.746;9.174;2023-03-08T08:38:58;13.00;;;7.80;;
9914;SDS011;4996;48.746;9.174;2023-03-08T08:41:23;15.00;;;7.00;;
9914;SDS011;4996;48.746;9.174;2023-03-08T08:43:49;12.57;;;7.30;;
9914;SDS011;4996;48.746;9.174;2023-03-08T08:46:15;14.60;;;8.30;;
9914;SDS011;4996;48.746;9.174;2023-03-08T08:48:41;16.50;;;7.73;;
9914;SDS011;4996;48.746;9.174;2023-03-08T08:51:07;14.20;;;7.80;;
9914;SDS011;4996;48.746;9.174;2023-03-08T08:53:35;27.23;;;8.03;;
9914;SDS011;4996;48.746;9.174;2023-03-08T08:58:41;17.90;;;8.47;;
9914;SDS011;4996;48.746;9.174;2023-03-08T09:01:17;15.97;;;8.30;;
9914;SDS011;4996;48.746;9.174;2023-03-08T09:03:45;12.10;;;7.70;;
9914;SDS011;4996;48.746;9.174;2023-03-08T09:06:11;14.77;;;8.33;;
9914;SDS011;4996;48.746;9.174;2023-03-08T09:08:38;12.60;;;8.13;;
9914;SDS011;4996;48.746;9.174;2023-03-08T09:11:05;17.73;;;8.47;;
9914;SDS011;4996;48.746;9.174;2023-03-08T09:13:31;11.80;;;7.63;;
9914;SDS011;4996;48.746;9.174;2023-03-08T09:15:57;17.90;;;9.23;;
9914;SDS011;4996;48.746;9.174;2023-03-08T09:18:23;22.43;;;9.90;;
9914;SDS011;4996;48.746;9.174;2023-03-08T09:20:49;13.77;;;7.90;;
9914;SDS011;4996;48.746;9.174;2023-03-08T09:23:15;17.70;;;9.10;;
9914;SDS011;4996;48.746;9.174;2023-03-08T09:25:41;13.53;;;7.70;;
9914;SDS011;4996;48.746;9.174;2023-03-08T09:28:06;15.13;;;8.77;;
9914;SDS011;4996;48.746;9.174;2023-03-08T09:30:32;17.50;;;9.07;;
9914;SDS011;4996;48.746;9.174;2023-03-08T09:32:58;16.80;;;9.40;;
9914;SDS011;4996;48.746;9.174;2023-03-08T09:35:25;14.30;;;8.43;;
9914;SDS011;4996;48.746;9.174;2023-03-08T09:37:50;18.07;;;9.10;;
9914;SDS011;4996;48.746;9.174;2023-03-08T09:40:17;20.27;;;11.00;;
9914;SDS011;4996;48.746;9.174;2023-03-08T09:42:45;17.53;;;9.57;;
9914;SDS011;4996;48.746;9.174;2023-03-08T09:50:41;15.13;;;8.27;;
9914;SDS011;4996;48.746;9.174;2023-03-08T09:53:35;16.27;;;9.13;;
9914;SDS011;4996;48.746;9.174;2023-03-08T09:56:13;14.10;;;9.13;;
9914;SDS011;4996;48.746;9.174;2023-03-08T09:59:01;18.70;;;9.23;;
9914;SDS011;4996;48.746;9.174;2023-03-08T10:01:51;14.40;;;8.80;;
9914;SDS011;4996;48.746;9.174;2023-03-08T10:07:18;13.37;;;7.50;;
9914;SDS011;4996;48.746;9.174;2023-03-08T10:13:00;11.40;;;5.33;;
9914;SDS011;4996;48.746;9.174;2023-03-08T10:15:48;9.87;;;5.97;;
9914;SDS011;4996;48.746;9.174;2023-03-08T10:18:23;10.87;;;6.60;;
9914;SDS011;4996;48.746;9.174;2023-03-08T10:20:51;9.20;;;4.80;;
9914;SDS011;4996;48.746;9.174;2023-03-08T10:23:21;27.83;;;6.00;;
9914;SDS011;4996;48.746;9.174;2023-03-08T10:25:47;7.00;;;5.13;;
9914;SDS011;4996;48.746;9.174;2023-03-08T10:28:18;9.27;;;4.77;;
9914;SDS011;4996;48.746;9.174;2023-03-08T10:30:46;7.30;;;4.13;;
9914;SDS011;4996;48.746;9.174;2023-03-08T10:33:24;7.07;;;3.57;;
9914;SDS011;4996;48.746;9.174;2023-03-08T10:38:24;6.93;;;4.13;;
9914;SDS011;4996;48.746;9.174;2023-03-08T10:41:02;3.77;;;2.73;;
9914;SDS011;4996;48.746;9.174;2023-03-08T10:43:32;6.97;;;4.57;;
9914;SDS011;4996;48.746;9.174;2023-03-08T10:46:01;4.77;;;2.80;;
9914;SDS011;4996;48.746;9.174;2023-03-08T10:48:35;8.27;;;4.33;;
9914;SDS011;4996;48.746;9.174;2023-03-08T10:51:02;5.60;;;3.80;;
9914;SDS011;4996;48.746;9.174;2023-03-08T10:53:29;9.10;;;2.53;;
9914;SDS011;4996;48.746;9.174;2023-03-08T10:55:57;7.50;;;3.77;;
9914;SDS011;4996;48.746;9.174;2023-03-08T11:01:08;11.87;;;2.70;;
9914;SDS011;4996;48.746;9.174;2023-03-08T11:04:00;5.20;;;2.53;;
9914;SDS011;4996;48.746;9.174;2023-03-08T11:06:27;5.27;;;3.07;;
9914;SDS011;4996;48.746;9.174;2023-03-08T11:08:54;3.03;;;2.00;;
9914;SDS011;4996;48.746;9.174;2023-03-08T11:11:22;6.30;;;2.00;;
9914;SDS011;4996;48.746;9.174;2023-03-08T11:13:48;1.97;;;1.80;;
9914;SDS011;4996;48.746;9.174;2023-03-08T11:19:52;3.60;;;1.93;;
9914;SDS011;4996;48.746;9.174;2023-03-08T11:24:51;1.40;;;1.30;;
9914;SDS011;4996;48.746;9.174;2023-03-08T11:27:47;1.20;;;0.83;;
9914;SDS011;4996;48.746;9.174;2023-03-08T11:30:23;1.20;;;1.00;;
9914;SDS011;4996;48.746;9.174;2023-03-08T11:33:02;1.40;;;1.00;;
9914;SDS011;4996;48.746;9.174;2023-03-08T11:38:23;1.40;;;1.10;;
9914;SDS011;4996;48.746;9.174;2023-03-08T11:43:56;1.60;;;0.70;;
9914;SDS011;4996;48.746;9.174;2023-03-08T11:54:35;0.67;;;0.43;;
9914;SDS011;4996;48.746;9.174;2023-03-08T11:57:12;0.93;;;0.60;;
9914;SDS011;4996;48.746;9.174;2023-03-08T12:02:17;0.90;;;0.70;;
9914;SDS011;4996;48.746;9.174;2023-03-08T12:05:09;7.20;;;0.90;;
9914;SDS011;4996;48.746;9.174;2023-03-08T12:07:41;2.07;;;0.90;;
9914;SDS011;4996;48.746;9.174;2023-03-08T12:10:25;3.27;;;0.80;;
9914;SDS011;4996;48.746;9.174;2023-03-08T12:12:56;1.13;;;0.73;;
9914;SDS011;4996;48.746;9.174;2023-03-08T12:15:34;1.30;;;0.90;;
9914;SDS011;4996;48.746;9.174;2023-03-08T12:21:13;0.80;;;0.60;;
9914;SDS011;4996;48.746;9.174;2023-03-08T12:24:14;2.03;;;1.03;;
9914;SDS011;4996;48.746;9.174;2023-03-08T12:26:56;1.00;;;0.73;;
9914;SDS011;4996;48.746;9.174;2023-03-08T12:29:30;1.70;;;0.90;;
9914;SDS011;4996;48.746;9.174;2023-03-08T12:32:03;1.30;;;0.73;;
9914;SDS011;4996;48.746;9.174;2023-03-08T12:34:39;3.80;;;1.07;;
9914;SDS011;4996;48.746;9.174;2023-03-08T12:37:23;1.00;;;0.60;;
9914;SDS011;4996;48.746;9.174;2023-03-08T12:39:55;1.30;;;0.90;;
9914;SDS011;4996;48.746;9.174;2023-03-08T12:42:28;1.33;;;0.70;;
9914;SDS011;4996;48.746;9.174;2023-03-08T12:45:24;1.20;;;1.00;;
9914;SDS011;4996;48.746;9.174;2023-03-08T12:47:55;1.37;;;0.70;;
9914;SDS011;4996;48.746;9.174;2023-03-08T12:50:40;0.83;;;0.67;;
9914;SDS011;4996;48.746;9.174;2023-03-08T12:56:00;1.87;;;0.80;;
9914;SDS011;4996;48.746;9.174;2023-03-08T12:58:28;1.70;;;0.57;;
9914;SDS011;4996;48.746;9.174;2023-03-08T13:01:30;3.10;;;1.00;;
9914;SDS011;4996;48.746;9.174;2023-03-08T13:03:58;12.47;;;1.43;;
9914;SDS011;4996;48.746;9.174;2023-03-08T13:08:54;1.33;;;0.80;;
9914;SDS011;4996;48.746;9.174;2023-03-08T13:11:24;1.03;;;0.60;;
9914;SDS011;4996;48.746;9.174;2023-03-08T13:14:01;1.13;;;0.77;;
9914;SDS011;4996;48.746;9.174;2023-03-08T13:16:30;1.13;;;0.83;;
9914;SDS011;4996;48.746;9.174;2023-03-08T13:19:05;1.13;;;0.70;;
9914;SDS011;4996;48.746;9.174;2023-03-08T13:21:38;0.67;;;0.50;;
9914;SDS011;4996;48.746;9.174;2023-03-08T13:24:35;1.20;;;0.70;;
9914;SDS011;4996;48.746;9.174;2023-03-08T13:30:16;0.80;;;0.70;;
9914;SDS011;4996;48.746;9.174;2023-03-08T13:32:59;1.13;;;0.70;;
9914;SDS011;4996;48.746;9.174;2023-03-08T13:35:30;0.80;;;0.70;;
9914;SDS011;4996;48.746;9.174;2023-03-08T13:37:56;4.27;;;1.77;;
9914;SDS011;4996;48.746;9.174;2023-03-08T13:40:24;1.10;;;0.80;;
9914;SDS011;4996;48.746;9.174;2023-03-08T13:42:52;2.17;;;0.97;;
9914;SDS011;4996;48.746;9.174;2023-03-08T13:45:35;1.27;;;1.17;;
9914;SDS011;4996;48.746;9.174;2023-03-08T13:48:02;1.53;;;1.00;;
9914;SDS011;4996;48.746;9.174;2023-03-08T13:50:34;0.90;;;0.73;;
9914;SDS011;4996;48.746;9.174;2023-03-08T13:53:02;0.80;;;0.50;;
9914;SDS011;4996;48.746;9.174;2023-03-08T13:55:33;1.20;;;0.70;;
9914;SDS011;4996;48.746;9.174;2023-03-08T13:58:03;0.80;;;0.57;;
9914;SDS011;4996;48.746;9.174;2023-03-08T14:00:30;0.63;;;0.60;;
9914;SDS011;4996;48.746;9.174;2023-03-08T14:02:58;2.10;;;1.00;;
9914;SDS011;4996;48.746;9.174;2023-03-08T14:05:26;2.50;;;1.57;;
9914;SDS011;4996;48.746;9.174;2023-03-08T14:07:55;0.80;;;0.67;;
9914;SDS011;4996;48.746;9.174;2023-03-08T14:10:22;2.27;;;0.70;;
9914;SDS011;4996;48.746;9.174;2023-03-08T14:12:53;0.50;;;0.50;;
9914;SDS011;4996;48.746;9.174;2023-03-08T14:15:20;5.80;;;0.83;;
9914;SDS011;4996;48.746;9.174;2023-03-08T14:17:46;1.50;;;0.60;;
9914;SDS011;4996;48.746;9.174;2023-03-08T14:20:21;2.50;;;0.80;;
9914;SDS011;4996;48.746;9.174;2023-03-08T14:22:49;1.70;;;1.10;;
9914;SDS011;4996;48.746;9.174;2023-03-08T14:25:19;1.33;;;0.70;;
9914;SDS011;4996;48.746;9.174;2023-03-08T14:27:50;1.57;;;0.63;;
9914;SDS011;4996;48.746;9.174;2023-03-08T14:30:26;0.50;;;0.33;;
9914;SDS011;4996;48.746;9.174;2023-03-08T14:32:58;0.83;;;0.60;;
9914;SDS011;4996;48.746;9.174;2023-03-08T14:35:25;0.90;;;0.60;;
9914;SDS011;4996;48.746;9.174;2023-03-08T14:37:53;9.00;;;4.67;;
9914;SDS011;4996;48.746;9.174;2023-03-08T14:40:33;1.50;;;1.30;;
9914;SDS011;4996;48.746;9.174;2023-03-08T14:43:05;0.80;;;0.60;;
9914;SDS011;4996;48.746;9.174;2023-03-08T14:45:38;1.10;;;0.70;;
9914;SDS011;4996;48.746;9.174;2023-03-08T14:50:59;6.87;;;2.90;;
9914;SDS011;4996;48.746;9.174;2023-03-08T14:53:29;1.23;;;0.97;;
9914;SDS011;4996;48.746;9.174;2023-03-08T14:55:59;2.93;;;0.70;;
9914;SDS011;4996;48.746;9.174;2023-03-08T14:58:27;8.27;;;2.90;;
9914;SDS011;4996;48.746;9.174;2023-03-08T15:00:56;3.30;;;1.80;;
9914;SDS011;4996;48.746;9.174;2023-03-08T15:03:24;2.00;;;1.43;;
9914;SDS011;4996;48.746;9.174;2023-03-08T15:05:51;3.37;;;1.00;;
9914;SDS011;4996;48.746;9.174;2023-03-08T15:08:18;7.10;;;2.60;;
9914;SDS011;4996;48.746;9.174;2023-03-08T15:10:45;6.50;;;2.90;;
9914;SDS011;4996;48.746;9.174;2023-03-08T15:13:12;2.20;;;0.80;;
9914;SDS011;4996;48.746;9.174;2023-03-08T15:15:44;6.40;;;2.90;;
9914;SDS011;4996;48.746;9.174;2023-03-08T15:18:10;2.73;;;1.30;;
9914;SDS011;4996;48.746;9.174;2023-03-08T15:20:37;35.00;;;18.20;;
9914;SDS011;4996;48.746;9.174;2023-03-08T15:23:10;2.40;;;1.10;;
9914;SDS011;4996;48.746;9.174;2023-03-08T15:25:42;2.60;;;1.10;;
9914;SDS011;4996;48.746;9.174;2023-03-08T15:28:09;22.40;;;9.03;;
9914;SDS011;4996;48.746;9.174;2023-03-08T15:30:37;1.37;;;0.80;;
9914;SDS011;4996;48.746;9.174;2023-03-08T15:33:03;4.20;;;2.20;;
9914;SDS011;4996;48.746;9.174;2023-03-08T15:35:28;3.13;;;1.50;;
9914;SDS011;4996;48.746;9.174;2023-03-08T15:37:54;3.73;;;1.50;;
9914;SDS011;4996;48.746;9.174;2023-03-08T15:40:21;4.47;;;2.47;;
9914;SDS011;4996;48.746;9.174;2023-03-08T15:42:53;4.60;;;2.00;;
9914;SDS011;4996;48.746;9.174;2023-03-08T15:45:18;1.10;;;0.73;;
9914;SDS011;4996;48.746;9.174;2023-03-08T15:47:54;1.73;;;0.67;;
9914;SDS011;4996;48.746;9.174;2023-03-08T15:50:27;1.27;;;0.67;;
9914;SDS011;4996;48.746;9.174;2023-03-08T15:52:53;1.53;;;0.87;;
9914;SDS011;4996;48.746;9.174;2023-03-08T15:55:20;4.37;;;2.40;;
9914;SDS011;4996;48.746;9.174;2023-03-08T15:57:46;1.00;;;0.90;;
9914;SDS011;4996;48.746;9.174;2023-03-08T16:00:13;2.40;;;1.30;;
9914;SDS011;4996;48.746;9.174;2023-03-08T16:02:39;0.90;;;0.67;;
9914;SDS011;4996;48.746;9.174;2023-03-08T16:05:06;1.20;;;0.80;;
9914;SDS011;4996;48.746;9.174;2023-03-08T16:07:33;1.27;;;0.87;;
9914;SDS011;4996;48.746;9.174;2023-03-08T16:09:59;1.67;;;1.00;;
9914;SDS011;4996;48.746;9.174;2023-03-08T16:12:26;3.50;;;2.07;;
9914;SDS011;4996;48.746;9.174;2023-03-08T16:14:51;1.73;;;0.93;;
9914;SDS011;4996;48.746;9.174;2023-03-08T16:17:19;10.53;;;1.47;;
9914;SDS011;4996;48.746;9.174;2023-03-08T16:19:44;1.57;;;0.60;;